createdAt,value
2023-06-08T00:01:01.098Z,100.00
2023-06-08T00:03:28.931Z,100.00
2023-06-08T00:06:00.069Z,100.00
2023-06-08T00:08:30.705Z,100.00
2023-06-08T00:10:58.448Z,100.00
2023-06-08T00:13:26.161Z,100.00
2023-06-08T00:15:53.855Z,100.00
2023-06-08T00:18:21.656Z,100.00
2023-06-08T00:20:49.390Z,100.00
2023-06-08T00:23:17.097Z,100.00
2023-06-08T00:25:46.199Z,100.00
2023-06-08T00:28:13.901Z,100.00
2023-06-08T00:30:41.665Z,100.00
2023-06-08T00:33:09.547Z,100.00
2023-06-08T00:35:37.249Z,100.00
2023-06-08T00:38:04.978Z,100.00
2023-06-08T00:40:32.653Z,100.00
2023-06-08T00:43:01.732Z,100.00
2023-06-08T00:45:29.464Z,100.00
2023-06-08T00:47:57.253Z,100.00
2023-06-08T00:50:25.788Z,100.00
2023-06-08T00:52:53.610Z,100.00
2023-06-08T00:55:22.122Z,100.00
2023-06-08T00:57:51.199Z,100.00
2023-06-08T01:00:20.609Z,100.00
2023-06-08T01:02:49.299Z,100.00
2023-06-08T01:05:18.376Z,100.00
2023-06-08T01:07:54.339Z,100.00
2023-06-08T01:10:29.157Z,100.00
2023-06-08T01:17:43.647Z,100.00
2023-06-08T01:20:30.774Z,100.00
2023-06-08T01:23:10.892Z,100.00
2023-06-08T01:25:41.305Z,100.00
2023-06-08T01:28:14.574Z,100.00
2023-06-08T01:30:43.745Z,100.00
2023-06-08T01:33:13.148Z,100.00
2023-06-08T01:35:41.353Z,100.00
2023-06-08T01:38:15.756Z,100.00
2023-06-08T01:40:47.858Z,100.00
2023-06-08T01:43:16.263Z,100.00
2023-06-08T01:45:48.227Z,100.00
2023-06-08T01:48:16.355Z,100.00
2023-06-08T01:50:45.095Z,100.00
2023-06-08T01:53:12.872Z,100.00
2023-06-08T01:55:40.570Z,100.00
2023-06-08T01:58:09.646Z,100.00
2023-06-08T02:00:37.377Z,100.00
2023-06-08T02:03:05.295Z,100.00
2023-06-08T02:05:33.061Z,100.00
2023-06-08T02:08:00.806Z,100.00
2023-06-08T02:10:29.801Z,100.00
2023-06-08T02:12:57.518Z,100.00
2023-06-08T02:15:26.888Z,100.00
2023-06-08T02:17:54.655Z,100.00
2023-06-08T02:20:22.382Z,100.00
2023-06-08T02:22:50.098Z,100.00
2023-06-08T02:25:17.833Z,100.00
2023-06-08T02:27:45.716Z,100.00
2023-06-08T02:30:15.287Z,100.00
2023-06-08T02:32:46.985Z,100.00
2023-06-08T02:35:15.379Z,100.00
2023-06-08T02:37:43.861Z,100.00
2023-06-08T02:40:12.343Z,100.00
2023-06-08T02:42:40.054Z,100.00
2023-06-08T02:45:08.582Z,100.00
2023-06-08T02:47:36.509Z,100.00
2023-06-08T02:50:06.595Z,100.00
2023-06-08T02:52:35.217Z,100.00
2023-06-08T02:55:02.957Z,100.00
2023-06-08T02:57:30.716Z,100.00
2023-06-08T02:59:58.759Z,100.00
2023-06-08T03:02:28.589Z,100.00
2023-06-08T03:04:59.837Z,100.00
2023-06-08T03:07:29.365Z,100.00
2023-06-08T03:09:57.051Z,100.00
2023-06-08T03:12:24.789Z,100.00
2023-06-08T03:14:54.306Z,100.00
2023-06-08T03:17:22.072Z,100.00
2023-06-08T03:19:49.910Z,100.00
2023-06-08T03:22:17.656Z,100.00
2023-06-08T03:24:49.999Z,100.00
2023-06-08T03:27:18.172Z,100.00
2023-06-08T03:29:46.910Z,100.00
2023-06-08T03:32:14.664Z,100.00
2023-06-08T03:34:45.970Z,100.00
2023-06-08T03:37:13.689Z,100.00
2023-06-08T03:39:41.389Z,100.00
2023-06-08T03:42:10.963Z,100.00
2023-06-08T03:44:38.671Z,100.00
2023-06-08T03:47:10.143Z,100.00
2023-06-08T03:49:37.855Z,100.00
2023-06-08T03:52:06.667Z,100.00
2023-06-08T03:54:34.357Z,100.00
2023-06-08T03:57:02.028Z,100.00
2023-06-08T03:59:31.115Z,100.00
2023-06-08T04:01:58.848Z,100.00
2023-06-08T04:04:30.602Z,100.00
2023-06-08T04:07:01.444Z,100.00
2023-06-08T04:09:29.472Z,100.00
2023-06-08T04:11:57.399Z,100.00
2023-06-08T04:14:25.682Z,100.00
2023-06-08T04:16:54.779Z,100.00
2023-06-08T04:19:22.463Z,100.00
2023-06-08T04:21:50.736Z,100.00
2023-06-08T04:24:18.502Z,100.00
2023-06-08T04:26:46.506Z,100.00
2023-06-08T04:29:14.409Z,100.00
2023-06-08T04:31:42.256Z,100.00
2023-06-08T04:34:11.953Z,100.00
2023-06-08T04:36:41.737Z,100.00
2023-06-08T04:39:09.921Z,100.00
2023-06-08T04:41:37.736Z,100.00
2023-06-08T04:44:06.493Z,100.00
2023-06-08T04:46:38.731Z,100.00
2023-06-08T04:49:07.212Z,100.00
2023-06-08T04:51:40.831Z,100.00
2023-06-08T04:54:14.153Z,100.00
2023-06-08T04:56:42.422Z,100.00
2023-06-08T04:59:10.535Z,100.00
2023-06-08T05:01:38.408Z,100.00
2023-06-08T05:04:08.653Z,100.00
2023-06-08T05:06:38.415Z,100.00
2023-06-08T05:09:06.533Z,100.00
2023-06-08T05:11:34.216Z,100.00
2023-06-08T05:14:01.942Z,100.00
2023-06-08T05:16:29.673Z,100.00
2023-06-08T05:18:57.500Z,100.00
2023-06-08T05:21:25.298Z,100.00
2023-06-08T05:23:54.427Z,100.00
2023-06-08T05:26:23.050Z,100.00
2023-06-08T05:28:50.762Z,100.00
2023-06-08T05:31:18.479Z,100.00
2023-06-08T05:33:46.209Z,100.00
2023-06-08T05:36:14.780Z,100.00
2023-06-08T05:38:43.105Z,100.00
2023-06-08T05:41:12.186Z,100.00
2023-06-08T05:43:39.889Z,100.00
2023-06-08T05:46:07.599Z,100.00
2023-06-08T05:48:35.356Z,100.00
2023-06-08T05:51:04.026Z,100.00
2023-06-08T05:53:32.005Z,100.00
2023-06-08T05:55:59.704Z,100.00
2023-06-08T05:58:40.794Z,100.00
2023-06-08T06:01:16.439Z,100.00
2023-06-08T06:03:44.261Z,100.00
2023-06-08T06:06:13.034Z,100.00
2023-06-08T06:08:44.382Z,100.00
2023-06-08T06:11:12.567Z,100.00
2023-06-08T06:13:41.770Z,100.00
2023-06-08T06:16:09.556Z,100.00
2023-06-08T06:18:37.897Z,100.00
2023-06-08T06:21:05.621Z,100.00
2023-06-08T06:23:33.377Z,100.00
2023-06-08T06:26:01.142Z,100.00
2023-06-08T06:28:28.964Z,100.00
2023-06-08T06:30:58.038Z,100.00
2023-06-08T06:33:26.017Z,100.00
2023-06-08T06:35:54.981Z,100.00
2023-06-08T06:38:22.856Z,100.00
2023-06-08T06:40:53.570Z,100.00
2023-06-08T06:43:22.138Z,100.00
2023-06-08T06:45:51.850Z,100.00
2023-06-08T06:48:23.822Z,100.00
2023-06-08T06:50:53.902Z,100.00
2023-06-08T06:53:21.713Z,100.00
2023-06-08T06:55:49.628Z,100.00
2023-06-08T06:58:17.424Z,100.00
2023-06-08T07:00:45.549Z,100.00
2023-06-08T07:03:13.830Z,100.00
2023-06-08T07:05:43.016Z,100.00
2023-06-08T07:08:11.433Z,100.00
2023-06-08T07:10:39.161Z,100.00
2023-06-08T07:13:06.894Z,100.00
2023-06-08T07:15:34.878Z,100.00
2023-06-08T07:18:02.616Z,100.00
2023-06-08T07:20:30.320Z,100.00
2023-06-08T07:23:07.626Z,100.00
2023-06-08T07:26:26.773Z,100.00
2023-06-08T07:28:34.965Z,100.00
2023-06-08T07:31:02.705Z,100.00
2023-06-08T07:33:30.515Z,100.00
2023-06-08T07:35:58.228Z,100.00
2023-06-08T07:38:27.417Z,100.00
2023-06-08T07:40:55.692Z,100.00
2023-06-08T07:43:23.390Z,100.00
2023-06-08T07:45:51.758Z,100.00
2023-06-08T07:48:19.493Z,100.00
2023-06-08T07:50:47.210Z,100.00
2023-06-08T07:53:16.076Z,100.00
2023-06-08T07:55:45.169Z,100.00
2023-06-08T07:58:12.918Z,100.00
2023-06-08T08:00:41.676Z,97.82
2023-06-08T08:03:09.579Z,98.01
2023-06-08T08:05:37.444Z,100.00
2023-06-08T08:08:05.463Z,99.17
2023-06-08T08:10:33.154Z,97.06
2023-06-08T08:13:02.239Z,97.22
2023-06-08T08:15:29.937Z,98.31
2023-06-08T08:17:58.222Z,97.57
2023-06-08T08:20:25.948Z,93.08
2023-06-08T08:22:53.650Z,95.77
2023-06-08T08:25:21.818Z,99.56
2023-06-08T08:27:49.541Z,90.34
2023-06-08T08:30:19.046Z,93.67
2023-06-08T08:32:46.936Z,93.88
2023-06-08T08:35:15.593Z,92.26
2023-06-08T08:37:43.543Z,91.39
2023-06-08T08:40:12.535Z,91.79
2023-06-08T08:42:44.469Z,88.65
2023-06-08T08:45:14.557Z,87.57
2023-06-08T08:47:43.846Z,85.92
2023-06-08T08:50:18.028Z,85.52
2023-06-08T08:52:47.156Z,83.14
2023-06-08T08:55:25.956Z,84.56
2023-06-08T08:58:02.629Z,80.95
2023-06-08T09:00:32.531Z,81.21
2023-06-08T09:03:02.524Z,78.80
2023-06-08T09:05:30.496Z,75.96
2023-06-08T09:07:58.247Z,79.44
2023-06-08T09:10:27.985Z,80.15
2023-06-08T09:12:58.098Z,80.90
2023-06-08T09:15:28.779Z,80.54
2023-06-08T09:17:58.433Z,84.30
2023-06-08T09:20:32.383Z,84.72
2023-06-08T09:23:00.192Z,78.86
2023-06-08T09:25:39.336Z,74.52
2023-06-08T09:28:17.536Z,75.03
2023-06-08T09:30:46.339Z,73.98
2023-06-08T09:33:22.412Z,76.93
2023-06-08T09:36:06.125Z,76.30
2023-06-08T09:38:34.862Z,74.30
2023-06-08T09:41:16.135Z,70.49
2023-06-08T09:43:44.769Z,71.81
2023-06-08T09:46:17.418Z,76.45
2023-06-08T09:48:55.089Z,75.05
2023-06-08T09:51:25.698Z,75.53
2023-06-08T09:53:56.429Z,73.41
2023-06-08T09:56:24.516Z,70.67
2023-06-08T09:58:53.408Z,73.96
2023-06-08T10:01:24.110Z,70.94
2023-06-08T10:03:54.976Z,72.13
2023-06-08T10:06:26.763Z,74.81
2023-06-08T10:08:55.868Z,71.50
2023-06-08T10:11:23.782Z,70.93
2023-06-08T10:13:52.185Z,71.82
2023-06-08T10:16:20.248Z,69.67
2023-06-08T10:18:48.712Z,65.48
2023-06-08T10:21:16.543Z,63.85
2023-06-08T10:23:46.131Z,60.07
2023-06-08T10:26:14.304Z,61.64
2023-06-08T10:29:20.873Z,61.42
2023-06-08T10:31:50.326Z,60.83
2023-06-08T10:34:18.633Z,63.10
2023-06-08T10:36:46.685Z,62.23
2023-06-08T10:39:17.786Z,61.06
2023-06-08T10:41:47.012Z,62.35
2023-06-08T10:44:32.390Z,59.33
2023-06-08T10:47:04.303Z,60.50
2023-06-08T10:49:35.776Z,62.43
2023-06-08T10:52:04.782Z,61.38
2023-06-08T10:55:03.785Z,59.00
2023-06-08T10:57:40.910Z,57.37
2023-06-08T11:00:45.238Z,57.49
2023-06-08T11:03:14.661Z,56.57
2023-06-08T11:05:44.447Z,58.99
2023-06-08T11:08:12.296Z,59.34
2023-06-08T11:10:41.981Z,58.26
2023-06-08T11:13:11.283Z,56.30
2023-06-08T11:15:40.380Z,57.54
2023-06-08T11:18:09.453Z,56.61
2023-06-08T11:20:38.615Z,55.23
2023-06-08T11:23:08.649Z,55.07
2023-06-08T11:25:37.050Z,57.26
2023-06-08T11:28:08.429Z,56.06
2023-06-08T11:30:36.826Z,54.43
2023-06-08T11:33:06.493Z,54.84
2023-06-08T11:35:35.041Z,51.71
2023-06-08T11:38:03.581Z,52.75
2023-06-08T11:40:32.683Z,51.50
2023-06-08T11:43:01.792Z,51.94
2023-06-08T11:45:31.999Z,53.78
2023-06-08T11:48:15.447Z,52.67
2023-06-08T11:50:48.349Z,52.04
2023-06-08T11:53:18.156Z,52.57
2023-06-08T11:55:47.778Z,52.25
2023-06-08T11:58:15.970Z,53.19
2023-06-08T12:00:46.302Z,52.77
2023-06-08T12:03:14.141Z,52.46
2023-06-08T12:05:44.595Z,52.01
2023-06-08T12:08:16.015Z,50.32
2023-06-08T12:10:47.667Z,48.43
2023-06-08T12:13:17.099Z,49.49
2023-06-08T12:15:48.905Z,49.11
2023-06-08T12:18:17.912Z,48.88
2023-06-08T12:20:46.968Z,49.45
2023-06-08T12:23:15.994Z,47.72
2023-06-08T12:25:44.472Z,48.53
2023-06-08T12:28:18.113Z,48.03
2023-06-08T12:30:47.361Z,47.25
2023-06-08T12:33:18.645Z,46.07
2023-06-08T12:35:46.578Z,46.65
2023-06-08T12:38:14.553Z,46.86
2023-06-08T12:40:44.838Z,47.19
2023-06-08T12:43:12.581Z,46.87
2023-06-08T12:45:40.275Z,46.72
2023-06-08T12:48:09.547Z,46.13
2023-06-08T12:50:39.325Z,46.20
2023-06-08T12:53:07.072Z,45.72
2023-06-08T12:55:34.933Z,45.18
2023-06-08T12:58:02.637Z,46.75
2023-06-08T13:00:30.537Z,47.27
2023-06-08T13:02:58.663Z,47.37
2023-06-08T13:05:30.266Z,47.52
2023-06-08T13:08:06.646Z,46.10
2023-06-08T13:10:34.518Z,46.68
2023-06-08T13:13:03.601Z,46.56
2023-06-08T13:15:31.520Z,45.00
2023-06-08T13:18:00.515Z,44.65
2023-06-08T13:20:29.799Z,46.18
2023-06-08T13:22:57.503Z,45.20
2023-06-08T13:25:25.295Z,44.92
2023-06-08T13:27:53.021Z,46.51
2023-06-08T13:30:22.530Z,44.24
2023-06-08T13:32:50.469Z,43.81
2023-06-08T13:35:18.426Z,45.86
2023-06-08T13:37:48.238Z,46.50
2023-06-08T13:40:16.020Z,46.26
2023-06-08T13:42:43.753Z,47.28
2023-06-08T13:45:13.109Z,45.31
2023-06-08T13:47:42.054Z,45.94
2023-06-08T13:50:11.819Z,46.11
2023-06-08T13:52:40.247Z,45.93
2023-06-08T13:55:10.255Z,45.97
2023-06-08T13:57:38.064Z,46.85
2023-06-08T14:00:07.763Z,46.90
2023-06-08T14:02:35.880Z,46.50
2023-06-08T14:05:04.752Z,46.43
2023-06-08T14:07:32.858Z,46.47
2023-06-08T14:10:01.619Z,46.55
2023-06-08T14:12:30.669Z,46.21
2023-06-08T14:14:58.388Z,46.51
2023-06-08T14:17:26.832Z,46.87
2023-06-08T14:19:54.588Z,46.49
2023-06-08T14:22:22.343Z,46.32
2023-06-08T14:24:50.085Z,46.78
2023-06-08T14:27:17.759Z,45.92
2023-06-08T14:29:47.366Z,45.56
2023-06-08T14:32:15.202Z,46.26
2023-06-08T14:34:42.896Z,45.78
2023-06-08T14:37:10.651Z,46.76
2023-06-08T14:39:38.350Z,46.77
2023-06-08T14:42:07.686Z,45.70
2023-06-08T14:44:35.716Z,44.98
2023-06-08T14:47:05.364Z,46.01
2023-06-08T14:49:38.066Z,46.32
2023-06-08T14:52:07.182Z,46.22
2023-06-08T14:54:34.939Z,46.25
2023-06-08T14:57:03.197Z,46.04
2023-06-08T14:59:31.415Z,46.35
2023-06-08T15:01:59.195Z,46.61
2023-06-08T15:04:28.382Z,47.22
2023-06-08T15:06:56.223Z,45.90
2023-06-08T15:09:24.343Z,45.28
2023-06-08T15:11:52.094Z,44.66
2023-06-08T15:14:19.780Z,45.85
2023-06-08T15:16:47.536Z,45.02
2023-06-08T15:19:15.928Z,45.55
2023-06-08T15:21:45.316Z,46.50
2023-06-08T15:24:13.309Z,46.27
2023-06-08T15:26:41.580Z,45.37
2023-06-08T15:29:12.818Z,45.95
2023-06-08T15:31:41.824Z,46.03
2023-06-08T15:34:09.720Z,46.40
2023-06-08T15:36:37.621Z,47.02
2023-06-08T15:39:06.782Z,46.59
2023-06-08T15:41:34.468Z,45.95
2023-06-08T15:44:02.848Z,47.41
2023-06-08T15:46:30.567Z,46.45
2023-06-08T15:48:58.337Z,46.51
2023-06-08T15:51:29.866Z,48.09
2023-06-08T15:53:58.433Z,48.13
2023-06-08T15:56:27.717Z,47.64
2023-06-08T15:58:56.119Z,47.14
2023-06-08T16:01:24.172Z,47.79
2023-06-08T16:03:51.932Z,49.13
2023-06-08T16:06:19.883Z,48.98
2023-06-08T16:08:47.646Z,49.87
2023-06-08T16:11:15.320Z,49.71
2023-06-08T16:13:46.321Z,49.34
2023-06-08T16:16:14.015Z,48.94
2023-06-08T16:18:42.163Z,49.13
2023-06-08T16:21:09.865Z,49.24
2023-06-08T16:23:37.599Z,49.47
2023-06-08T16:26:05.442Z,48.98
2023-06-08T16:28:33.293Z,49.10
2023-06-08T16:31:02.348Z,50.12
2023-06-08T16:33:30.847Z,49.92
2023-06-08T16:35:58.523Z,48.67
2023-06-08T16:38:26.219Z,49.15
2023-06-08T16:40:54.049Z,50.17
2023-06-08T16:43:21.806Z,49.51
2023-06-08T16:45:50.135Z,49.91
2023-06-08T16:48:19.284Z,49.96
2023-06-08T16:50:47.120Z,50.29
2023-06-08T16:53:14.973Z,50.25
2023-06-08T16:55:42.684Z,49.39
2023-06-08T16:58:10.448Z,49.49
2023-06-08T17:00:38.252Z,49.60
2023-06-08T17:03:06.385Z,49.54
2023-06-08T17:05:35.481Z,50.75
2023-06-08T17:08:03.157Z,51.17
2023-06-08T17:10:32.015Z,51.09
2023-06-08T17:12:59.718Z,50.59
2023-06-08T17:15:27.480Z,51.15
2023-06-08T17:17:55.327Z,51.25
2023-06-08T17:20:23.967Z,51.50
2023-06-08T17:22:53.205Z,51.48
2023-06-08T17:25:20.956Z,51.45
2023-06-08T17:27:48.640Z,51.42
2023-06-08T17:30:16.481Z,51.99
2023-06-08T17:32:44.237Z,51.88
2023-06-08T17:35:12.012Z,51.68
2023-06-08T17:37:39.936Z,51.48
2023-06-08T17:40:10.652Z,51.59
2023-06-08T17:42:38.380Z,51.96
2023-06-08T17:45:07.180Z,51.47
2023-06-08T17:47:35.378Z,51.65
2023-06-08T17:50:03.099Z,52.26
2023-06-08T17:52:30.846Z,51.48
2023-06-08T17:54:58.601Z,51.25
2023-06-08T17:57:27.717Z,51.82
2023-06-08T17:59:55.413Z,51.41
2023-06-08T18:02:23.166Z,50.78
2023-06-08T18:04:50.877Z,50.24
2023-06-08T18:07:18.616Z,50.56
2023-06-08T18:09:46.292Z,50.15
2023-06-08T18:12:13.962Z,49.83
2023-06-08T18:14:43.067Z,49.48
2023-06-08T18:17:10.879Z,49.21
2023-06-08T18:19:38.804Z,48.96
2023-06-08T18:22:06.705Z,50.35
2023-06-08T18:24:34.401Z,51.52
2023-06-08T18:27:02.116Z,52.16
2023-06-08T18:29:29.797Z,52.76
2023-06-08T18:31:58.937Z,53.37
2023-06-08T18:34:26.772Z,52.66
2023-06-08T18:36:54.527Z,53.87
2023-06-08T18:39:22.234Z,54.32
2023-06-08T18:41:50.413Z,53.90
2023-06-08T18:44:18.114Z,53.91
2023-06-08T18:46:46.277Z,53.89
2023-06-08T18:49:20.350Z,53.71
2023-06-08T18:51:48.073Z,53.54
2023-06-08T18:54:15.999Z,52.76
2023-06-08T18:56:43.710Z,54.13
2023-06-08T18:59:11.415Z,53.59
2023-06-08T19:01:39.674Z,52.10
2023-06-08T19:04:07.468Z,51.96
2023-06-08T19:06:37.423Z,51.91
2023-06-08T19:09:05.162Z,51.34
2023-06-08T19:11:32.882Z,50.91
2023-06-08T19:14:02.230Z,51.00
2023-06-08T19:16:32.814Z,51.54
2023-06-08T19:19:06.549Z,51.83
2023-06-08T19:21:34.250Z,51.47
2023-06-08T19:24:04.190Z,51.41
2023-06-08T19:26:32.064Z,50.49
2023-06-08T19:29:00.000Z,50.60
2023-06-08T19:31:27.919Z,51.05
2023-06-08T19:33:55.664Z,51.48
2023-06-08T19:36:24.079Z,52.34
2023-06-08T19:38:54.276Z,53.08
2023-06-08T19:41:23.747Z,53.44
2023-06-08T19:43:51.818Z,54.28
2023-06-08T19:46:19.628Z,54.73
2023-06-08T19:48:48.048Z,55.21
2023-06-08T19:51:15.868Z,56.32
2023-06-08T19:53:43.674Z,56.42
2023-06-08T19:56:11.415Z,57.66
2023-06-08T19:58:40.749Z,56.86
2023-06-08T20:01:09.192Z,57.24
2023-06-08T20:03:37.079Z,57.91
2023-06-08T20:06:05.306Z,57.41
2023-06-08T20:08:32.998Z,58.20
2023-06-08T20:11:00.776Z,58.92
2023-06-08T20:13:28.493Z,59.24
2023-06-08T20:15:57.562Z,59.56
2023-06-08T20:18:25.326Z,60.65
2023-06-08T20:20:53.052Z,61.20
2023-06-08T20:23:20.772Z,61.84
2023-06-08T20:25:48.572Z,62.42
2023-06-08T20:28:16.330Z,62.90
2023-06-08T20:30:44.004Z,62.25
2023-06-08T20:33:13.137Z,63.43
2023-06-08T20:35:40.836Z,63.13
2023-06-08T20:38:08.584Z,63.64
2023-06-08T20:40:36.725Z,64.61
2023-06-08T20:43:04.483Z,66.15
2023-06-08T20:45:32.181Z,68.65
2023-06-08T20:47:59.914Z,69.89
2023-06-08T20:50:29.024Z,70.40
2023-06-08T20:52:57.958Z,71.98
2023-06-08T20:55:25.847Z,73.73
2023-06-08T20:57:53.564Z,73.69
2023-06-08T21:00:21.688Z,73.67
2023-06-08T21:02:51.146Z,74.63
2023-06-08T21:05:20.822Z,74.72
2023-06-08T21:07:50.021Z,75.38
2023-06-08T21:10:17.913Z,74.18
2023-06-08T21:12:45.689Z,73.60
2023-06-08T21:15:13.367Z,72.70
2023-06-08T21:17:41.167Z,72.99
2023-06-08T21:20:09.960Z,72.43
2023-06-08T21:22:37.691Z,73.45
2023-06-08T21:25:07.475Z,73.16
2023-06-08T21:27:35.409Z,73.82
2023-06-08T21:30:03.633Z,75.89
2023-06-08T21:32:31.506Z,76.08
2023-06-08T21:34:59.254Z,76.24
2023-06-08T21:37:27.796Z,75.98
2023-06-08T21:39:55.560Z,76.21
2023-06-08T21:42:24.652Z,76.23
2023-06-08T21:44:53.591Z,77.04
2023-06-08T21:47:21.341Z,76.93
2023-06-08T21:49:49.076Z,77.64
2023-06-08T21:52:17.115Z,77.56
2023-06-08T21:54:47.837Z,76.88
2023-06-08T21:57:16.045Z,78.02
2023-06-08T21:59:45.518Z,76.90
2023-06-08T22:02:13.307Z,76.73
2023-06-08T22:04:41.118Z,77.32
2023-06-08T22:07:08.838Z,79.13
2023-06-08T22:09:37.642Z,79.99
2023-06-08T22:12:06.585Z,80.54
2023-06-08T22:14:34.326Z,80.99
2023-06-08T22:17:03.447Z,82.09
2023-06-08T22:19:32.863Z,82.86
2023-06-08T22:22:02.015Z,85.21
2023-06-08T22:24:29.723Z,86.09
2023-06-08T22:26:57.408Z,87.92
2023-06-08T22:29:25.106Z,89.29
2023-06-08T22:31:52.843Z,90.04
2023-06-08T22:34:21.953Z,92.22
2023-06-08T22:36:49.627Z,92.58
2023-06-08T22:39:17.335Z,95.47
2023-06-08T22:41:45.029Z,97.54
2023-06-08T22:44:13.993Z,98.79
2023-06-08T22:46:42.556Z,100.00
2023-06-08T22:49:11.510Z,100.00
2023-06-08T22:51:41.911Z,100.00
2023-06-08T22:54:10.126Z,100.00
2023-06-08T22:56:37.823Z,100.00
2023-06-08T22:59:05.539Z,100.00
2023-06-08T23:01:33.313Z,100.00
2023-06-08T23:04:01.036Z,100.00
2023-06-08T23:06:28.794Z,100.00
2023-06-08T23:09:03.872Z,100.00
2023-06-08T23:11:33.218Z,100.00
2023-06-08T23:14:04.365Z,100.00
2023-06-08T23:16:32.615Z,100.00
2023-06-08T23:19:01.880Z,100.00
2023-06-08T23:21:32.500Z,100.00
2023-06-08T23:24:01.591Z,100.00
2023-06-08T23:26:29.911Z,100.00
2023-06-08T23:28:58.134Z,100.00
2023-06-08T23:31:26.044Z,100.00
2023-06-08T23:33:54.044Z,100.00
2023-06-08T23:36:21.880Z,100.00
2023-06-08T23:38:49.915Z,100.00
2023-06-08T23:41:19.010Z,100.00
2023-06-08T23:43:46.946Z,100.00
2023-06-08T23:46:15.617Z,100.00
2023-06-08T23:48:44.009Z,100.00
2023-06-08T23:51:12.781Z,100.00
2023-06-08T23:53:40.491Z,100.00
2023-06-08T23:56:08.251Z,100.00
2023-06-08T23:58:37.341Z,100.00
